createdAt,value
2018-12-04T00:01:04.578Z,97542.70
2018-12-04T00:03:34.191Z,97545.56
2018-12-04T00:06:04.803Z,97550.88
2018-12-04T00:08:34.523Z,97557.78
2018-12-04T00:11:03.898Z,97556.05
2018-12-04T00:13:33.417Z,97553.13
2018-12-04T00:16:03.312Z,97555.73
2018-12-04T00:18:32.824Z,97554.06
2018-12-04T00:21:02.157Z,97552.00
2018-12-04T00:23:31.864Z,97549.29
2018-12-04T00:26:01.384Z,97556.59
2018-12-04T00:28:30.987Z,97557.45
2018-12-04T00:31:00.549Z,97557.13
2018-12-04T00:33:29.964Z,97560.22
2018-12-04T00:35:59.703Z,97553.06
2018-12-04T00:38:29.146Z,97565.60
2018-12-04T00:40:58.496Z,97563.16
2018-12-04T00:43:27.853Z,97562.05
2018-12-04T00:45:57.727Z,97566.89
2018-12-04T00:48:27.078Z,97575.55
2018-12-04T00:50:56.441Z,97580.70
2018-12-04T00:53:26.346Z,97577.33
2018-12-04T00:55:55.727Z,97592.83
2018-12-04T00:58:25.337Z,97597.55
2018-12-04T01:00:54.951Z,97593.34
2018-12-04T01:03:24.468Z,97600.58
2018-12-04T01:05:54.377Z,97600.77
2018-12-04T01:08:23.702Z,97603.52
2018-12-04T01:10:53.183Z,97605.58
2018-12-04T01:13:22.602Z,97610.27
2018-12-04T01:15:52.291Z,97609.41
2018-12-04T01:18:21.653Z,97621.59
2018-12-04T01:20:51.046Z,97615.39
2018-12-04T01:23:21.218Z,97628.38
2018-12-04T01:25:51.151Z,97629.23
2018-12-04T01:28:20.555Z,97627.17
2018-12-04T01:30:51.817Z,97629.41
2018-12-04T01:33:21.176Z,97627.29
2018-12-04T01:35:50.948Z,97622.79
2018-12-04T01:38:20.260Z,97640.09
2018-12-04T01:40:49.618Z,97639.14
2018-12-04T01:43:19.549Z,97646.50
2018-12-04T01:45:49.032Z,97642.49
2018-12-04T01:48:18.583Z,97641.95
2018-12-04T01:50:48.214Z,97639.30
2018-12-04T01:53:17.581Z,97639.30
2018-12-04T01:55:48.662Z,97638.49
2018-12-04T01:58:17.972Z,97639.97
2018-12-04T02:00:47.310Z,97630.30
2018-12-04T02:03:17.221Z,97641.92
2018-12-04T02:05:46.548Z,97642.12
2018-12-04T02:08:15.986Z,97642.73
2018-12-04T02:10:45.779Z,97656.09
2018-12-04T02:13:15.189Z,97659.29
2018-12-04T02:15:44.733Z,97660.29
2018-12-04T02:18:14.567Z,97665.83
2018-12-04T02:20:44.029Z,97661.83
2018-12-04T02:23:13.608Z,97666.22
2018-12-04T02:25:43.137Z,97681.28
2018-12-04T02:28:12.584Z,97682.70
2018-12-04T02:30:42.629Z,97680.31
2018-12-04T02:33:12.058Z,97677.31
2018-12-04T02:35:41.611Z,97677.66
2018-12-04T02:38:11.260Z,97669.16
2018-12-04T02:40:40.796Z,97661.33
2018-12-04T02:43:10.728Z,97664.95
2018-12-04T02:45:40.263Z,97665.09
2018-12-04T02:48:09.753Z,97675.91
2018-12-04T02:50:39.357Z,97680.03
2018-12-04T02:53:08.733Z,97685.25
2018-12-04T02:55:38.104Z,97689.53
2018-12-04T02:58:07.941Z,97692.42
2018-12-04T03:00:37.364Z,97694.78
2018-12-04T03:03:06.948Z,97683.58
2018-12-04T03:05:36.640Z,97694.64
2018-12-04T03:08:06.059Z,97698.14
2018-12-04T03:10:36.085Z,97709.42
2018-12-04T03:13:05.498Z,97706.92
2018-12-04T03:15:35.505Z,97701.45
2018-12-04T03:18:04.854Z,97705.97
2018-12-04T03:20:34.851Z,97703.81
2018-12-04T03:23:04.297Z,97714.09
2018-12-04T03:25:34.297Z,97707.39
2018-12-04T03:28:03.731Z,97715.02
2018-12-04T03:30:36.591Z,97717.52
2018-12-04T03:33:06.135Z,97714.05
2018-12-04T03:35:36.075Z,97714.70
2018-12-04T03:38:05.625Z,97717.43
2018-12-04T03:40:36.626Z,97718.31
2018-12-04T03:43:06.054Z,97725.70
2018-12-04T03:45:35.524Z,97737.82
2018-12-04T03:48:05.471Z,97747.25
2018-12-04T03:50:35.409Z,97745.06
2018-12-04T03:53:04.725Z,97745.91
2018-12-04T03:55:34.635Z,97750.76
2018-12-04T03:58:04.038Z,97750.76
2018-12-04T04:00:33.511Z,97756.41
2018-12-04T04:03:03.307Z,97754.23
2018-12-04T04:05:32.875Z,97756.62
2018-12-04T04:08:02.759Z,97752.37
2018-12-04T04:10:32.191Z,97763.83
2018-12-04T04:13:01.675Z,97769.25
2018-12-04T04:15:31.530Z,97768.44
2018-12-04T04:18:01.679Z,97771.47
2018-12-04T04:20:31.130Z,97776.89
2018-12-04T04:23:01.030Z,97773.66
2018-12-04T04:25:30.639Z,97769.92
2018-12-04T04:28:00.349Z,97776.51
2018-12-04T04:30:29.679Z,97784.62
2018-12-04T04:32:59.061Z,97783.78
2018-12-04T04:35:30.438Z,97791.32
2018-12-04T04:38:00.193Z,97791.59
2018-12-04T04:40:29.565Z,97788.18
2018-12-04T04:42:58.970Z,97797.91
2018-12-04T04:45:28.796Z,97808.70
2018-12-04T04:47:59.224Z,97805.20
2018-12-04T04:50:28.587Z,97792.81
2018-12-04T04:52:58.519Z,97800.84
2018-12-04T04:55:27.987Z,97815.86
2018-12-04T04:57:57.979Z,97822.00
2018-12-04T05:00:27.281Z,97820.33
2018-12-04T05:02:56.802Z,97827.56
2018-12-04T05:05:28.478Z,97835.64
2018-12-04T05:07:57.970Z,97841.06
2018-12-04T05:10:27.374Z,97847.29
2018-12-04T05:12:57.009Z,97851.17
2018-12-04T05:15:26.466Z,97853.68
2018-12-04T05:17:55.982Z,97857.26
2018-12-04T05:20:25.952Z,97854.89
2018-12-04T05:22:55.429Z,97864.63
2018-12-04T05:25:25.209Z,97872.13
2018-12-04T05:27:54.612Z,97878.31
2018-12-04T05:30:24.138Z,97890.22
2018-12-04T05:32:53.550Z,97890.06
2018-12-04T05:35:23.143Z,97890.89
2018-12-04T05:38:34.442Z,97902.22
2018-12-04T05:41:03.879Z,97894.73
2018-12-04T05:43:33.386Z,97900.45
2018-12-04T05:46:03.094Z,97901.03
2018-12-04T05:48:32.416Z,97912.73
2018-12-04T05:51:02.446Z,97917.59
2018-12-04T05:53:33.744Z,97919.18
2018-12-04T05:56:03.966Z,97930.73
2018-12-04T05:58:33.976Z,97933.12
2018-12-04T06:01:03.567Z,97931.23
2018-12-04T06:03:33.517Z,97951.64
2018-12-04T06:06:04.025Z,97966.44
2018-12-04T06:08:33.756Z,97972.41
2018-12-04T06:11:03.175Z,97975.00
2018-12-04T06:13:32.538Z,97973.05
2018-12-04T06:16:02.077Z,97976.53
2018-12-04T06:18:31.654Z,97983.51
2018-12-04T06:21:02.205Z,97988.89
2018-12-04T06:23:31.689Z,97988.14
2018-12-04T06:26:01.517Z,97991.14
2018-12-04T06:28:31.603Z,97997.60
2018-12-04T06:31:01.846Z,98002.19
2018-12-04T06:33:31.635Z,98000.09
2018-12-04T06:36:01.058Z,98005.20
2018-12-04T06:38:31.274Z,98017.11
2018-12-04T06:41:01.529Z,98025.45
2018-12-04T06:43:30.850Z,98020.92
2018-12-04T06:46:00.986Z,98017.16
2018-12-04T06:48:30.510Z,98017.75
2018-12-04T06:51:00.081Z,98025.28
2018-12-04T06:53:29.570Z,98033.61
2018-12-04T06:55:59.071Z,98040.34
2018-12-04T06:58:29.188Z,98044.45
2018-12-04T07:00:59.845Z,98057.30
2018-12-04T07:03:29.576Z,98055.74
2018-12-04T07:05:59.964Z,98062.48
2018-12-04T07:08:30.346Z,98061.97
2018-12-04T07:10:59.693Z,98068.94
2018-12-04T07:13:29.436Z,98076.78
2018-12-04T07:15:59.554Z,98089.70
2018-12-04T07:18:30.549Z,98089.95
2018-12-04T07:21:01.091Z,98098.83
2018-12-04T07:23:30.956Z,98116.88
2018-12-04T07:26:01.310Z,98118.48
2018-12-04T07:28:31.606Z,98134.92
2018-12-04T07:31:01.947Z,98135.69
2018-12-04T07:33:31.955Z,98137.30
2018-12-04T07:36:01.515Z,98134.04
2018-12-04T07:38:33.204Z,98142.64
2018-12-04T07:41:02.675Z,98152.34
2018-12-04T07:43:32.470Z,98156.09
2018-12-04T07:46:01.981Z,98154.50
2018-12-04T07:48:31.550Z,98160.14
2018-12-04T07:51:01.136Z,98174.41
2018-12-04T07:53:31.607Z,98181.72
2018-12-04T07:56:02.383Z,98182.78
2018-12-04T07:58:32.804Z,98197.05
2018-12-04T08:01:02.227Z,98197.81
2018-12-04T08:03:32.375Z,98211.03
2018-12-04T08:06:06.806Z,98214.78
2018-12-04T08:08:36.229Z,98208.59
2018-12-04T08:11:05.693Z,98208.03
2018-12-04T08:13:35.962Z,98207.44
2018-12-04T08:16:06.051Z,98217.67
2018-12-04T08:18:36.699Z,98221.40
2018-12-04T08:21:06.556Z,98228.36
2018-12-04T08:23:36.674Z,98245.84
2018-12-04T08:26:07.096Z,98242.11
2018-12-04T08:28:37.230Z,98243.41
2018-12-04T08:31:07.281Z,98246.39
2018-12-04T08:33:37.686Z,98251.45
2018-12-04T08:36:07.521Z,98249.89
2018-12-04T08:38:37.270Z,98261.41
2018-12-04T08:41:07.685Z,98254.35
2018-12-04T08:43:37.361Z,98261.32
2018-12-04T08:46:06.841Z,98273.67
2018-12-04T08:48:36.794Z,98263.38
2018-12-04T08:51:07.119Z,98282.11
2018-12-04T08:53:36.794Z,98287.57
2018-12-04T08:56:07.259Z,98294.23
2018-12-04T08:58:36.701Z,98302.81
2018-12-04T09:01:06.622Z,98309.44
2018-12-04T09:03:36.926Z,98312.20
2018-12-04T09:06:10.586Z,98322.20
2018-12-04T09:08:40.273Z,98328.29
2018-12-04T09:11:11.501Z,98332.83
2018-12-04T09:13:41.665Z,98345.19
2018-12-04T09:16:12.919Z,98346.34
2018-12-04T09:18:42.538Z,98349.84
2018-12-04T09:21:12.144Z,98357.33
2018-12-04T09:23:42.354Z,98360.88
2018-12-04T09:26:12.534Z,98360.16
2018-12-04T09:28:42.147Z,98372.00
2018-12-04T09:31:11.961Z,98371.13
2018-12-04T09:33:41.441Z,98375.75
2018-12-04T09:36:12.401Z,98372.34
2018-12-04T09:38:42.594Z,98382.90
2018-12-04T09:41:12.108Z,98382.39
2018-12-04T09:43:42.844Z,98381.51
2018-12-04T09:46:13.556Z,98371.31
2018-12-04T09:48:43.577Z,98371.27
2018-12-04T09:51:13.664Z,98368.29
2018-12-04T09:53:44.786Z,98376.05
2018-12-04T09:56:14.169Z,98367.86
2018-12-04T09:58:44.070Z,98379.77
2018-12-04T10:01:13.810Z,98384.27
2018-12-04T10:03:43.364Z,98387.30
2018-12-04T10:06:13.029Z,98382.61
2018-12-04T10:08:42.653Z,98387.76
2018-12-04T10:11:12.236Z,98373.88
2018-12-04T10:13:41.766Z,98383.15
2018-12-04T10:16:11.468Z,98393.20
2018-12-04T10:18:47.476Z,98396.77
2018-12-04T10:21:14.021Z,98409.68
2018-12-04T10:23:43.710Z,98410.94
2018-12-04T10:26:13.414Z,98404.90
2018-12-04T10:28:43.634Z,98411.81
2018-12-04T10:31:13.313Z,98411.48
2018-12-04T10:33:43.093Z,98413.66
2018-12-04T10:36:13.399Z,98409.97
2018-12-04T10:38:43.127Z,98419.13
2018-12-04T10:41:12.601Z,98406.50
2018-12-04T10:43:42.065Z,98410.76
2018-12-04T10:46:11.762Z,98411.31
2018-12-04T10:48:41.365Z,98413.80
2018-12-04T10:51:11.471Z,98411.12
2018-12-04T10:53:40.859Z,98412.78
2018-12-04T10:56:10.285Z,98412.16
2018-12-04T10:58:39.780Z,98426.22
2018-12-04T11:01:14.446Z,98424.17
2018-12-04T11:03:44.445Z,98422.52
2018-12-04T11:06:13.772Z,98421.13
2018-12-04T11:08:43.143Z,98427.73
2018-12-04T11:11:12.725Z,98434.39
2018-12-04T11:13:42.290Z,98447.56
2018-12-04T11:16:12.570Z,98449.20
2018-12-04T11:18:42.674Z,98450.09
2018-12-04T11:21:12.122Z,98451.33
2018-12-04T11:23:41.458Z,98455.22
2018-12-04T11:26:12.393Z,98456.53
2018-12-04T11:28:42.539Z,98454.14
2018-12-04T11:31:12.415Z,98447.90
2018-12-04T11:33:41.845Z,98452.76
2018-12-04T11:36:12.149Z,98459.70
2018-12-04T11:38:41.724Z,98467.30
2018-12-04T11:41:11.335Z,98465.97
2018-12-04T11:43:40.949Z,98468.78
2018-12-04T11:46:11.061Z,98478.14
2018-12-04T11:48:41.458Z,98477.58
2018-12-04T11:51:11.436Z,98478.91
2018-12-04T11:53:41.715Z,98476.24
2018-12-04T11:56:11.994Z,98483.61
2018-12-04T11:58:41.990Z,98486.84
2018-12-04T12:01:16.376Z,98486.22
2018-12-04T12:03:46.519Z,98493.40
2018-12-04T12:06:16.832Z,98496.77
2018-12-04T12:08:46.701Z,98502.72
2018-12-04T12:11:16.140Z,98503.86
2018-12-04T12:13:46.250Z,98504.34
2018-12-04T12:16:16.280Z,98510.46
2018-12-04T12:18:46.814Z,98509.84
2018-12-04T12:21:16.637Z,98513.63
2018-12-04T12:23:46.313Z,98519.55
2018-12-04T12:26:16.224Z,98523.61
2018-12-04T12:28:47.262Z,98523.94
2018-12-04T12:31:17.495Z,98525.18
2018-12-04T12:33:46.866Z,98519.09
2018-12-04T12:36:16.517Z,98527.69
2018-12-04T12:38:47.026Z,98522.50
2018-12-04T12:41:17.367Z,98527.40
2018-12-04T12:43:47.606Z,98523.04
2018-12-04T12:46:18.221Z,98525.16
2018-12-04T12:48:48.052Z,98532.70
2018-12-04T12:51:18.617Z,98533.78
2018-12-04T12:53:48.256Z,98535.09
2018-12-04T12:56:17.716Z,98539.33
2018-12-04T12:58:47.243Z,98536.66
2018-12-04T13:01:18.446Z,98532.67
2018-12-04T13:03:48.287Z,98539.95
2018-12-04T13:06:17.881Z,98542.39
2018-12-04T13:08:47.518Z,98533.42
2018-12-04T13:11:16.919Z,98538.42
2018-12-04T13:13:47.006Z,98542.78
2018-12-04T13:16:16.410Z,98552.41
2018-12-04T13:18:45.989Z,98546.10
2018-12-04T13:21:15.560Z,98555.02
2018-12-04T13:23:45.817Z,98550.14
2018-12-04T13:26:15.325Z,98555.67
2018-12-04T13:28:45.183Z,98556.66
2018-12-04T13:31:15.535Z,98558.72
2018-12-04T13:33:45.827Z,98561.40
2018-12-04T13:36:15.439Z,98560.57
2018-12-04T13:38:45.291Z,98566.38
2018-12-04T13:41:15.127Z,98583.17
2018-12-04T13:47:19.982Z,98588.30
2018-12-04T13:49:50.089Z,98592.42
2018-12-04T13:52:20.289Z,98600.02
2018-12-04T13:54:50.535Z,98595.73
2018-12-04T13:57:20.786Z,98598.27
2018-12-04T13:59:50.858Z,98611.77
2018-12-04T14:02:20.350Z,98617.44
2018-12-04T14:04:49.944Z,98616.09
2018-12-04T14:07:19.507Z,98624.43
2018-12-04T14:09:49.891Z,98631.98
2018-12-04T14:12:21.078Z,98628.80
2018-12-04T14:14:51.058Z,98633.38
2018-12-04T14:17:20.436Z,98632.06
2018-12-04T14:19:49.828Z,98634.76
2018-12-04T14:22:19.377Z,98645.01
2018-12-04T14:24:48.988Z,98646.11
2018-12-04T14:27:19.214Z,98643.39
2018-12-04T14:29:49.469Z,98648.25
2018-12-04T14:32:19.651Z,98649.06
2018-12-04T14:34:48.976Z,98657.13
2018-12-04T14:37:19.006Z,98658.49
2018-12-04T14:39:49.429Z,98652.30
2018-12-04T14:42:20.841Z,98660.66
2018-12-04T14:44:50.720Z,98666.87
2018-12-04T14:47:20.434Z,98675.19
2018-12-04T14:49:50.048Z,98670.07
2018-12-04T14:52:19.791Z,98670.88
2018-12-04T14:54:49.734Z,98684.61
2018-12-04T15:02:12.157Z,98705.34
2018-12-04T15:04:41.670Z,98706.41
2018-12-04T15:07:11.649Z,98710.17
2018-12-04T15:09:41.851Z,98712.08
2018-12-04T15:12:11.187Z,98718.28
2018-12-04T15:14:40.584Z,98714.77
2018-12-04T15:17:10.151Z,98716.66
2018-12-04T15:19:39.869Z,98720.69
2018-12-04T15:22:09.945Z,98727.96
2018-12-04T15:24:39.668Z,98735.23
2018-12-04T15:27:09.360Z,98733.08
2018-12-04T15:29:39.459Z,98744.89
2018-12-04T15:32:09.055Z,98749.71
2018-12-04T15:34:38.935Z,98749.66
2018-12-04T15:37:09.244Z,98758.28
2018-12-04T15:39:39.462Z,98765.56
2018-12-04T15:42:09.650Z,98763.95
2018-12-04T15:44:39.299Z,98771.52
2018-12-04T15:48:12.542Z,98778.25
2018-12-04T15:50:42.583Z,98784.40
2018-12-04T15:53:11.975Z,98783.34
2018-12-04T15:55:41.654Z,98791.06
2018-12-04T15:58:11.196Z,98795.05
2018-12-04T16:00:40.734Z,98794.83
2018-12-04T16:03:10.477Z,98802.39
2018-12-04T16:05:40.809Z,98803.97
2018-12-04T16:08:10.201Z,98807.50
2018-12-04T16:10:40.417Z,98806.17
2018-12-04T16:13:10.317Z,98808.03
2018-12-04T16:15:39.965Z,98811.00
2018-12-04T16:18:10.457Z,98811.00
2018-12-04T16:20:40.032Z,98814.72
2018-12-04T16:23:09.466Z,98814.95
2018-12-04T16:25:39.096Z,98814.41
2018-12-04T16:28:08.793Z,98824.08
2018-12-04T16:30:39.853Z,98817.09
2018-12-04T16:33:09.359Z,98822.17
2018-12-04T16:35:39.252Z,98826.77
2018-12-04T16:38:08.723Z,98821.88
2018-12-04T16:40:38.627Z,98833.42
2018-12-04T16:43:08.055Z,98834.20
2018-12-04T16:45:37.469Z,98835.28
2018-12-04T16:48:07.379Z,98836.89
2018-12-04T16:50:37.089Z,98847.67
2018-12-04T16:53:08.139Z,98847.69
2018-12-04T16:55:37.882Z,98854.92
2018-12-04T16:58:07.407Z,98858.70
2018-12-04T17:00:37.311Z,98860.84
2018-12-04T17:03:06.674Z,98861.05
2018-12-04T17:05:37.151Z,98872.37
2018-12-04T17:08:07.183Z,98868.02
2018-12-04T17:10:37.304Z,98873.67
2018-12-04T17:13:07.324Z,98879.55
2018-12-04T17:15:37.764Z,98890.50
2018-12-04T17:18:07.652Z,98892.52
2018-12-04T17:20:37.083Z,98896.87
2018-12-04T17:23:07.087Z,98897.48
2018-12-04T17:25:37.576Z,98902.31
2018-12-04T17:28:07.455Z,98909.33
2018-12-04T17:30:36.932Z,98918.50
2018-12-04T17:33:06.544Z,98916.63
2018-12-04T17:35:36.359Z,98920.16
2018-12-04T17:38:06.512Z,98925.25
2018-12-04T17:40:36.513Z,98928.73
2018-12-04T17:43:05.904Z,98922.77
2018-12-04T17:45:36.115Z,98924.91
2018-12-04T17:48:05.574Z,98934.08
2018-12-04T17:50:35.020Z,98937.56
2018-12-04T17:53:04.642Z,98938.05
2018-12-04T17:55:34.132Z,98935.10
2018-12-04T17:58:05.908Z,98932.94
2018-12-04T18:00:36.260Z,98929.94
2018-12-04T18:03:06.767Z,98925.90
2018-12-04T18:05:36.334Z,98929.38
2018-12-04T18:08:05.843Z,98930.20
2018-12-04T18:10:37.014Z,98929.94
2018-12-04T18:13:06.025Z,98928.85
2018-12-04T18:15:38.450Z,98934.75
2018-12-04T18:18:08.645Z,98937.67
2018-12-04T18:20:38.755Z,98941.13
2018-12-04T18:23:08.255Z,98938.14
2018-12-04T18:25:37.838Z,98938.95
2018-12-04T18:28:07.453Z,98937.06
2018-12-04T18:30:37.695Z,98934.89
2018-12-04T18:33:07.250Z,98939.16
2018-12-04T18:35:37.080Z,98933.78
2018-12-04T18:38:06.523Z,98934.28
2018-12-04T18:40:36.493Z,98941.00
2018-12-04T18:43:06.835Z,98944.73
2018-12-04T18:45:36.901Z,98952.47
2018-12-04T18:48:07.213Z,98955.02
2018-12-04T18:50:36.806Z,98962.55
2018-12-04T18:53:06.407Z,98965.23
2018-12-04T18:55:35.826Z,98968.19
2018-12-04T18:58:06.062Z,98975.84
2018-12-04T19:00:35.925Z,98984.05
2018-12-04T19:03:05.569Z,98983.53
2018-12-04T19:05:35.473Z,98977.38
2018-12-04T19:08:05.064Z,98978.68
2018-12-04T19:10:34.875Z,98975.13
2018-12-04T19:13:04.240Z,98971.92
2018-12-04T19:15:34.388Z,98968.12
2018-12-04T19:18:05.691Z,98963.19
2018-12-04T19:20:35.206Z,98965.88
2018-12-04T19:23:04.960Z,98971.54
2018-12-04T19:25:34.454Z,98972.63
2018-12-04T19:28:03.999Z,98977.95
2018-12-04T19:30:33.752Z,98978.44
2018-12-04T19:33:03.885Z,98973.51
2018-12-04T19:35:33.609Z,98974.29
2018-12-04T19:38:03.298Z,98962.42
2018-12-04T19:40:34.183Z,98959.80
2018-12-04T19:43:03.631Z,98965.39
2018-12-04T19:45:33.965Z,98971.84
2018-12-04T19:48:03.848Z,98974.52
2018-12-04T19:50:33.241Z,98974.29
2018-12-04T19:53:03.545Z,98971.39
2018-12-04T19:55:33.733Z,98964.47
2018-12-04T19:58:03.838Z,98973.00
2018-12-04T20:00:33.192Z,98981.39
2018-12-04T20:03:03.293Z,98986.98
2018-12-04T20:05:32.745Z,98980.48
2018-12-04T20:08:02.771Z,98982.91
2018-12-04T20:10:32.871Z,98974.29
2018-12-04T20:13:02.951Z,98969.83
2018-12-04T20:15:34.266Z,98973.66
2018-12-04T20:18:04.654Z,98977.44
2018-12-04T20:20:34.256Z,98982.44
2018-12-04T20:23:03.881Z,98975.42
2018-12-04T20:25:33.869Z,98998.63
2018-12-04T20:28:04.911Z,98990.80
2018-12-04T20:30:34.739Z,98989.65
2018-12-04T20:33:04.370Z,98989.90
2018-12-04T20:35:33.930Z,98990.05
2018-12-04T20:38:04.105Z,98996.35
2018-12-04T20:40:33.590Z,98990.42
2018-12-04T20:43:03.591Z,98993.05
2018-12-04T20:45:33.830Z,98997.02
2018-12-04T20:48:06.149Z,98995.60
2018-12-04T20:50:36.706Z,98998.86
2018-12-04T20:53:06.325Z,99009.08
2018-12-04T20:55:36.572Z,99010.05
2018-12-04T20:58:06.484Z,99012.53
2018-12-04T21:00:36.859Z,99011.97
2018-12-04T21:03:08.177Z,99014.34
2018-12-04T21:05:38.094Z,99015.69
2018-12-04T21:08:07.553Z,99014.91
2018-12-04T21:10:37.629Z,99025.17
2018-12-04T21:13:14.293Z,99016.55
2018-12-04T21:15:38.706Z,99019.48
2018-12-04T21:18:08.294Z,99032.64
2018-12-04T21:20:37.990Z,99036.27
2018-12-04T21:23:07.551Z,99029.86
2018-12-04T21:25:36.903Z,99011.63
2018-12-04T21:28:12.092Z,99015.02
2018-12-04T21:30:47.233Z,99014.12
2018-12-04T21:33:21.959Z,99015.41
2018-12-04T21:35:56.536Z,99000.81
2018-12-04T21:38:31.323Z,99013.48
2018-12-04T21:41:06.966Z,99017.80
2018-12-04T21:43:41.604Z,99021.14
2018-12-04T21:46:16.461Z,99021.44
2018-12-04T21:48:47.508Z,99035.41
2018-12-04T21:51:17.053Z,99030.05
2018-12-04T21:53:46.493Z,99036.80
2018-12-04T21:56:16.303Z,99040.82
2018-12-04T21:58:45.596Z,99050.45
2018-12-04T22:01:15.292Z,99050.45
2018-12-04T22:03:44.921Z,99053.92
2018-12-04T22:06:15.190Z,99051.55
2018-12-04T22:08:45.134Z,99055.51
2018-12-04T22:11:15.471Z,99056.38
2018-12-04T22:13:44.770Z,99057.62
2018-12-04T22:16:14.176Z,99053.55
2018-12-04T22:18:44.116Z,99059.42
2018-12-04T22:21:14.307Z,99054.36
2018-12-04T22:23:44.407Z,99053.59
2018-12-04T22:26:13.790Z,99055.05
2018-12-04T22:28:43.200Z,99060.67
2018-12-04T22:31:13.081Z,99057.89
2018-12-04T22:33:43.240Z,99056.98
2018-12-04T22:36:13.320Z,99055.59
2018-12-04T22:38:42.725Z,99062.87
2018-12-04T22:41:12.907Z,99065.41
2018-12-04T22:43:43.094Z,99069.73
2018-12-04T22:46:12.466Z,99060.88
2018-12-04T22:48:41.824Z,99065.08
2018-12-04T22:51:11.523Z,99067.90
2018-12-04T22:53:41.009Z,99064.86
2018-12-04T22:56:11.309Z,99061.09
2018-12-04T22:58:40.598Z,99068.94
2018-12-04T23:01:10.986Z,99068.14
2018-12-04T23:03:40.711Z,99061.97
2018-12-04T23:06:10.071Z,99065.16
2018-12-04T23:08:44.306Z,99061.39
2018-12-04T23:11:14.369Z,99059.34
2018-12-04T23:13:43.775Z,99059.80
2018-12-04T23:16:13.728Z,99062.38
2018-12-04T23:18:42.982Z,99071.94
2018-12-04T23:21:12.239Z,99075.95
2018-12-04T23:23:41.551Z,99073.22
2018-12-04T23:26:10.789Z,99062.63
2018-12-04T23:28:42.982Z,99059.95
2018-12-04T23:31:12.732Z,99053.50
2018-12-04T23:33:42.238Z,99051.13
2018-12-04T23:36:11.723Z,99052.55
2018-12-04T23:38:41.637Z,99050.50
2018-12-04T23:41:11.129Z,99049.93
2018-12-04T23:43:40.770Z,99055.86
2018-12-04T23:46:10.364Z,99046.30
2018-12-04T23:48:39.906Z,99045.78
2018-12-04T23:51:10.480Z,99036.34
2018-12-04T23:53:39.927Z,99035.50
2018-12-04T23:56:09.256Z,99035.00
2018-12-04T23:58:39.319Z,99032.63
